Time;durP1;ratioP1;P1;durP2;ratioP2;P2;SDS_P1;SDS_P2;PMS_P1;PMS_P2;Temp;Humidity;BMP_temperature;BMP_pressure;BME280_temperature;BME280_humidity;BME280_pressure;Samples;Min_cycle;Max_cycle;Signal;HPM_P1;HPM_P2
2021/03/31 00:07:20;;;;;;;76.53;41.13;;;;;;;7.91;100.00;101562.16;20963420;27;860199;-62
2021/03/31 00:17:20;;;;;;;86.93;43.83;;;;;;;7.92;100.00;101544.41;20955618;28;20746;-61
2021/03/31 00:47:12;;;;;;;62.73;36.00;;;;;;;7.43;100.00;101523.91;21009138;27;20586;-63
2021/03/31 00:57:13;;;;;;;59.77;32.87;;;;;;;7.52;100.00;101516.50;21011433;28;20766;-62
2021/03/31 01:37:34;;;;;;;76.93;38.93;;;;;;;7.15;100.00;101514.16;21012175;27;20546;-61
2021/03/31 01:47:38;;;;;;;63.60;29.43;;;;;;;7.15;100.00;101507.97;20984350;28;20253;-61
2021/03/31 02:37:24;;;;;;;89.20;36.60;;;;;;;6.47;100.00;101495.84;20895392;27;20574;-61
2021/03/31 03:37:18;;;;;;;157.13;37.07;;;;;;;6.03;100.00;101470.59;20897264;27;21068;-60
2021/03/31 03:47:19;;;;;;;183.97;32.77;;;;;;;5.91;100.00;101465.63;20883063;28;20237;-60
2021/03/31 04:07:16;;;;;;;74.67;20.27;;;;;;;5.49;100.00;101466.69;20897878;27;20549;-61
2021/03/31 04:17:17;;;;;;;201.97;31.13;;;;;;;5.38;100.00;101465.19;20884787;28;20220;-60
2021/03/31 05:17:01;;;;;;;272.83;62.73;;;;;;;6.66;100.00;101476.75;21016196;27;20546;-61
2021/03/31 05:27:03;;;;;;;101.22;34.35;;;;;;;7.07;100.00;101463.09;20993438;28;20265;-62
2021/03/31 05:37:06;;;;;;;55.23;29.37;;;;;;;7.31;100.00;101432.22;20967641;28;20988;-64
2021/03/31 06:17:11;;;;;;;58.67;41.43;;;;;;;9.35;100.00;101483.22;20869344;27;20627;-66
2021/03/31 06:27:13;;;;;;;52.07;39.17;;;;;;;9.77;100.00;101479.72;20863833;28;20238;-63
2021/03/31 06:37:22;;;;;;;56.00;42.27;;;;;;;10.20;100.00;101481.41;20867237;28;20251;-62
2021/03/31 06:57:26;;;;;;;42.43;37.43;;;;;;;11.26;100.00;101472.88;20849789;28;20270;-68
2021/03/31 07:07:38;;;;;;;52.67;43.47;;;;;;;11.51;100.00;101468.06;20892617;28;20938;-72
2021/03/31 07:17:42;;;;;;;33.93;30.43;;;;;;;11.96;100.00;101466.69;20883705;28;20237;-70
2021/03/31 07:27:47;;;;;;;37.23;30.23;;;;;;;12.38;100.00;101451.06;20819697;28;20240;-71
2021/03/31 07:37:48;;;;;;;35.73;30.37;;;;;;;13.05;100.00;101455.38;20813442;28;20247;-60
2021/03/31 07:47:49;;;;;;;32.37;28.97;;;;;;;13.72;100.00;101462.25;20775970;28;20776;-58
2021/03/31 07:58:12;;;;;;;30.10;26.83;;;;;;;14.77;97.31;101463.84;20798479;28;20288;-66
2021/03/31 08:08:13;;;;;;;49.40;42.07;;;;;;;15.18;93.75;101469.25;20798551;28;20231;-66
2021/03/31 08:18:14;;;;;;;37.10;33.13;;;;;;;15.13;92.01;101471.38;20829700;28;20237;-60
2021/03/31 08:28:14;;;;;;;34.63;30.93;;;;;;;15.02;94.36;101468.53;20817177;28;20666;-60
2021/03/31 08:38:15;;;;;;;37.40;31.27;;;;;;;15.06;93.03;101459.31;20822954;28;20465;-58
2021/03/31 08:48:34;;;;;;;36.80;33.00;;;;;;;15.20;92.20;101461.09;20811145;28;20913;-67
2021/03/31 08:58:35;;;;;;;33.37;29.80;;;;;;;15.53;91.23;101463.38;20825475;28;20225;-74
2021/03/31 09:08:41;;;;;;;38.43;33.53;;;;;;;15.59;90.94;101452.22;20814654;28;20281;-78
2021/03/31 09:18:43;;;;;;;37.53;33.43;;;;;;;15.73;91.35;101436.00;20826477;28;20281;-69
2021/03/31 09:28:44;;;;;;;30.10;26.50;;;;;;;16.03;86.86;101425.84;20818830;28;20229;-71
2021/03/31 09:38:45;;;;;;;17.83;16.00;;;;;;;16.25;84.15;101408.19;20644231;28;20224;-68
2021/03/31 09:48:46;;;;;;;19.17;17.07;;;;;;;16.31;76.40;101407.72;20652058;28;20898;-69
2021/03/31 09:58:48;;;;;;;22.77;18.07;;;;;;;16.46;81.21;101390.47;20621692;28;20328;-74
2021/03/31 10:08:50;;;;;;;19.33;17.43;;;;;;;16.71;79.46;101395.84;20658795;28;20250;-67
2021/03/31 10:18:50;;;;;;;21.10;18.60;;;;;;;16.95;80.86;101397.72;20638344;28;20327;-65
2021/03/31 10:28:53;;;;;;;19.93;17.70;;;;;;;17.23;80.25;101375.81;20656239;28;20806;-63
2021/03/31 10:39:10;;;;;;;18.50;16.50;;;;;;;17.47;78.58;101379.38;20641061;28;20228;-61
2021/03/31 10:49:17;;;;;;;23.37;20.80;;;;;;;17.63;78.47;101361.03;20659263;28;20230;-62
2021/03/31 10:59:18;;;;;;;18.80;16.80;;;;;;;17.80;76.99;101348.06;20646333;28;20260;-61
2021/03/31 11:09:20;;;;;;;14.83;13.33;;;;;;;17.89;71.72;101331.13;20661096;28;20229;-59
2021/03/31 11:29:40;;;;;;;16.37;13.97;;;;;;;18.33;72.79;101303.28;20655399;28;20907;-62
2021/03/31 11:39:41;;;;;;;15.93;14.27;;;;;;;18.46;67.91;101303.16;20676316;28;20507;-69
2021/03/31 11:49:41;;;;;;;10.53;9.47;;;;;;;18.63;67.69;101289.13;20624508;28;20232;-67
2021/03/31 11:59:41;;;;;;;12.37;9.30;;;;;;;18.82;60.85;101267.69;20616289;28;20224;-70
2021/03/31 12:09:42;;;;;;;7.23;6.10;;;;;;;18.82;55.47;101256.88;20622633;28;20636;-65
2021/03/31 12:19:42;;;;;;;8.23;7.10;;;;;;;18.95;59.78;101252.16;20659162;28;20312;-70
2021/03/31 12:29:43;;;;;;;6.57;5.57;;;;;;;18.90;61.99;101248.09;20673650;28;20555;-72
2021/03/31 12:39:44;;;;;;;8.70;7.80;;;;;;;19.11;64.15;101218.38;20657575;28;20969;-65
2021/03/31 12:49:47;;;;;;;11.07;7.83;;;;;;;19.33;59.35;101204.69;20653362;28;20330;-68
2021/03/31 12:59:47;;;;;;;10.03;7.87;;;;;;;19.69;57.53;101206.91;20649907;28;20856;-74
2021/03/31 13:09:48;;;;;;;8.80;6.60;;;;;;;19.86;61.11;101189.16;20682612;28;20232;-58
2021/03/31 13:40:22;;;;;;;7.97;6.50;;;;;;;19.66;57.07;101155.75;20729874;28;20218;-58
2021/03/31 13:50:24;;;;;;;7.07;6.13;;;;;;;19.77;58.34;101146.66;20732771;28;20278;-58
2021/03/31 14:00:26;;;;;;;9.70;8.10;;;;;;;19.78;59.60;101135.69;20732067;28;20362;-58
2021/03/31 14:10:27;;;;;;;8.97;8.03;;;;;;;19.78;58.15;101132.13;20682307;28;20229;-60
2021/03/31 14:20:27;;;;;;;9.18;7.75;;;;;;;19.74;57.39;101103.59;20667133;28;20220;-57
2021/03/31 14:30:28;;;;;;;8.07;7.27;;;;;;;19.74;59.24;101084.63;20647152;28;20232;-62
2021/03/31 14:40:28;;;;;;;9.17;7.93;;;;;;;19.77;59.80;101077.09;20688553;28;20525;-58
2021/03/31 14:50:31;;;;;;;9.07;7.17;;;;;;;19.73;58.49;101064.81;20665309;28;20307;-57
2021/03/31 15:00:33;;;;;;;10.47;8.27;;;;;;;19.65;58.29;101048.44;20684964;28;20217;-59
2021/03/31 15:10:34;;;;;;;14.30;9.60;;;;;;;19.53;55.24;101033.28;20724186;28;20234;-58
2021/03/31 15:20:48;;;;;;;11.63;8.07;;;;;;;19.53;56.91;101019.75;20743209;28;20302;-58
2021/03/31 15:30:49;;;;;;;9.60;8.43;;;;;;;19.43;60.17;101014.28;20741701;28;20240;-63
2021/03/31 15:40:53;;;;;;;13.60;11.77;;;;;;;19.26;57.90;101008.66;20739737;28;20216;-69
2021/03/31 15:50:54;;;;;;;8.70;7.13;;;;;;;19.10;61.02;101011.88;20741453;28;20223;-65
2021/03/31 16:00:54;;;;;;;13.83;9.77;;;;;;;18.82;61.50;101007.22;20741116;28;20886;-58
2021/03/31 16:10:55;;;;;;;11.93;9.03;;;;;;;18.59;62.48;100984.91;20739755;28;20356;-60
2021/03/31 16:20:55;;;;;;;15.77;13.17;;;;;;;18.31;62.79;100987.25;20739357;28;20456;-61
2021/03/31 16:31:38;;;;;;;10.53;7.83;;;;;;;17.97;63.09;100983.88;20736793;28;20225;-57
2021/03/31 16:41:20;;;;;;;21.33;14.57;;;;;;;17.42;65.23;100971.38;20727280;28;20545;-61
2021/03/31 16:51:22;;;;;;;20.93;15.10;;;;;;;16.74;66.75;100958.09;20678732;28;20235;-61
2021/03/31 17:01:23;;;;;;;14.83;10.50;;;;;;;16.05;69.08;100954.56;20657982;28;20236;-58
2021/03/31 17:11:24;;;;;;;11.87;8.17;;;;;;;15.33;71.31;100935.75;20675060;28;20360;-61
2021/03/31 17:21:24;;;;;;;9.83;8.07;;;;;;;14.90;73.04;100938.03;20675609;28;20235;-59
2021/03/31 17:31:25;;;;;;;12.17;9.10;;;;;;;14.41;74.35;100940.66;20675502;28;21231;-62
2021/03/31 17:41:26;;;;;;;9.10;8.20;;;;;;;13.93;76.29;100918.91;20672806;28;20305;-64
2021/03/31 17:51:33;;;;;;;19.63;15.13;;;;;;;13.55;77.24;100926.00;20674285;28;20278;-70
2021/03/31 18:01:34;;;;;;;14.50;12.97;;;;;;;13.04;79.64;100907.00;20674465;28;20223;-66
2021/03/31 18:11:35;;;;;;;12.43;11.13;;;;;;;12.47;81.06;100866.94;20670619;28;20229;-65
2021/03/31 18:21:35;;;;;;;27.67;24.80;;;;;;;13.50;81.66;100914.75;20675715;28;20431;-60
2021/03/31 18:31:36;;;;;;;18.87;15.97;;;;;;;12.61;83.61;100908.91;20666509;28;20250;-72
2021/03/31 18:51:43;;;;;;;19.03;16.07;;;;;;;11.73;87.17;100899.16;20670785;28;20229;-63
2021/03/31 19:01:44;;;;;;;22.10;17.27;;;;;;;11.35;88.36;100889.91;20670142;28;20251;-70
2021/03/31 19:11:45;;;;;;;28.47;21.10;;;;;;;11.08;90.48;100885.19;20671080;28;20236;-59
2021/03/31 19:21:46;;;;;;;48.73;34.60;;;;;;;10.92;91.49;100873.66;20680676;28;20271;-59
2021/03/31 19:31:47;;;;;;;40.97;28.60;;;;;;;10.65;93.35;100876.06;20681585;28;20295;-71
2021/03/31 19:41:48;;;;;;;31.13;23.20;;;;;;;10.35;94.60;100856.41;20654134;28;20228;-60
2021/03/31 20:01:48;;;;;;;17.70;14.30;;;;;;;9.97;97.45;100845.97;20888647;27;20553;-59
2021/03/31 20:11:49;;;;;;;53.33;31.80;;;;;;;9.79;99.44;100835.41;20882539;28;20335;-63
2021/03/31 20:21:50;;;;;;;40.53;28.37;;;;;;;9.72;100.00;100833.09;20813838;28;20224;-61
2021/03/31 20:31:52;;;;;;;36.47;25.70;;;;;;;9.71;100.00;100818.03;20827016;28;20228;-60
2021/03/31 20:41:53;;;;;;;28.20;20.67;;;;;;;9.60;100.00;100804.41;20815908;28;20224;-59
2021/03/31 20:51:54;;;;;;;33.90;21.53;;;;;;;9.64;100.00;100806.00;20830556;28;20223;-59
2021/03/31 21:01:55;;;;;;;31.23;21.30;;;;;;;9.84;100.00;100801.38;20799434;28;20235;-58
2021/03/31 21:11:59;;;;;;;21.50;16.50;;;;;;;9.77;100.00;100800.00;20827296;28;20266;-57
2021/03/31 21:22:01;;;;;;;24.73;17.60;;;;;;;9.66;100.00;100780.09;20823586;28;20221;-57
2021/03/31 21:41:58;;;;;;;36.50;24.03;;;;;;;9.33;100.00;100781.88;20883759;27;20662;-61
2021/03/31 21:52:00;;;;;;;25.87;18.47;;;;;;;9.07;100.00;100779.66;20878665;28;20278;-60
2021/03/31 22:02:00;;;;;;;25.40;18.87;;;;;;;8.75;100.00;100763.53;20878436;28;20215;-59
2021/03/31 22:12:04;;;;;;;40.10;30.37;;;;;;;8.60;100.00;100764.28;20880319;28;20226;-60
2021/03/31 22:32:04;;;;;;;28.97;20.60;;;;;;;8.42;100.00;100758.06;20819094;28;20654;-64
2021/03/31 22:42:05;;;;;;;58.30;29.77;;;;;;;8.33;100.00;100747.88;20796573;28;20234;-61
2021/03/31 22:52:05;;;;;;;54.40;29.93;;;;;;;8.23;100.00;100726.13;20781740;28;20764;-61
2021/03/31 23:31:59;;;;;;;40.77;28.17;;;;;;;7.80;100.00;100691.91;20872315;27;20578;-60
2021/03/31 23:41:59;;;;;;;35.33;27.47;;;;;;;7.73;100.00;100677.22;20806436;28;20217;-59
2021/03/31 23:52:00;;;;;;;31.70;22.70;;;;;;;7.68;100.00;100664.13;20797901;28;20890;-58
